Time;durP1;ratioP1;P1;durP2;ratioP2;P2;SDS_P1;SDS_P2;PMS_P1;PMS_P2;Temp;Humidity;BMP_temperature;BMP_pressure;BME280_temperature;BME280_humidity;BME280_pressure;Samples;Min_cycle;Max_cycle;Signal;HPM_P1;HPM_P2
2021/01/03 00:01:56;1024317.00;3.41;1775.59;0.00;0.00;0.62;;;;;23.90;38.70;;;;;;2234554;61;2362;-74
2021/01/03 00:04:27;1027851.00;3.43;1781.86;0.00;0.00;0.62;;;;;23.90;38.80;;;;;;2235806;61;2298;-74
2021/01/03 00:06:55;937246.00;3.12;1621.63;0.00;0.00;0.62;;;;;23.90;38.80;;;;;;2233634;61;2411;-70
2021/01/03 00:09:22;1440329.00;4.80;2531.33;22986.00;0.08;40.44;;;;;23.80;38.90;;;;;;2229265;61;3230;-70
2021/01/03 00:11:50;999726.00;3.33;1731.99;0.00;0.00;0.62;;;;;23.80;38.90;;;;;;2237129;61;2331;-74
2021/01/03 00:14:17;986040.00;3.29;1707.76;0.00;0.00;0.62;;;;;23.70;39.10;;;;;;2230729;61;2322;-71
2021/01/03 00:16:48;973793.00;3.25;1686.11;0.00;0.00;0.62;;;;;23.60;39.10;;;;;;2236124;61;3910;-69
2021/01/03 00:19:14;1201876.00;4.01;2093.61;54095.00;0.18;94.27;;;;;23.70;39.10;;;;;;2232954;61;3955;-70
2021/01/03 00:21:44;952584.00;3.18;1648.67;0.00;0.00;0.62;;;;;23.60;39.20;;;;;;2239180;61;2343;-68
2021/01/03 00:24:15;121010056.00;403.37;71784184.00;0.00;0.00;0.62;;;;;23.60;39.30;;;;;;2238352;61;2470;-71
2021/01/03 00:26:41;963513.00;3.21;1667.95;0.00;0.00;0.62;;;;;23.50;39.50;;;;;;2234464;61;2622;-73
2021/01/03 00:29:08;996758.00;3.32;1726.73;0.00;0.00;0.62;;;;;23.50;39.40;;;;;;2231284;61;4105;-72
2021/01/03 00:31:40;1095562.00;3.65;1902.49;0.00;0.00;0.62;;;;;23.50;39.40;;;;;;2240429;61;2497;-69
2021/01/03 00:34:06;956235.00;3.19;1655.11;0.00;0.00;0.62;;;;;23.40;39.50;;;;;;2240212;61;3681;-70
2021/01/03 00:36:32;925021.00;3.08;1600.11;0.00;0.00;0.62;;;;;23.40;39.40;;;;;;2238413;61;4013;-69
2021/01/03 00:38:59;942978.00;3.14;1631.73;0.00;0.00;0.62;;;;;23.40;39.50;;;;;;2237907;61;2927;-70
2021/01/03 00:41:25;1012190.00;3.37;1754.07;0.00;0.00;0.62;;;;;23.30;39.60;;;;;;2238204;61;4036;-71
2021/01/03 00:43:56;965388.00;3.22;1671.26;0.00;0.00;0.62;;;;;23.40;39.60;;;;;;2236981;61;3620;-69
2021/01/03 00:46:22;961942.00;3.21;1665.18;0.00;0.00;0.62;;;;;23.30;39.60;;;;;;2236060;61;2617;-71
2021/01/03 00:48:48;1235007.00;4.12;2153.64;4008.00;0.01;7.57;;;;;23.30;39.60;;;;;;2237883;61;4070;-69
2021/01/03 00:51:18;1019869.00;3.40;1767.69;0.00;0.00;0.62;;;;;23.30;39.50;;;;;;2242030;61;3885;-69
2021/01/03 00:53:45;1005565.00;3.35;1742.33;0.00;0.00;0.62;;;;;23.20;39.70;;;;;;2236521;61;3744;-73
2021/01/03 00:56:11;1034493.00;3.45;1793.66;0.00;0.00;0.62;;;;;23.20;39.80;;;;;;2239589;61;2610;-74
2021/01/03 00:58:37;955425.00;3.18;1653.68;0.00;0.00;0.62;;;;;23.20;39.80;;;;;;2238461;61;4470;-75
2021/01/03 01:01:04;1058558.00;3.53;1836.47;0.00;0.00;0.62;;;;;23.30;39.90;;;;;;2238565;61;5592;-74
2021/01/03 01:03:31;1204870.00;4.02;2099.03;0.00;0.00;0.62;;;;;23.20;39.70;;;;;;2238032;61;4193;-70
2021/01/03 01:05:58;924390.00;3.08;1599.00;0.00;0.00;0.62;;;;;23.20;39.70;;;;;;2241691;61;4062;-74
2021/01/03 01:08:25;944255.00;3.15;1633.98;0.00;0.00;0.62;;;;;23.20;39.80;;;;;;2237517;61;2718;-72
2021/01/03 01:10:51;906091.00;3.02;1566.82;0.00;0.00;0.62;;;;;23.20;39.90;;;;;;2241038;61;4101;-69
2021/01/03 01:13:17;975613.00;3.25;1689.33;0.00;0.00;0.62;;;;;23.20;39.80;;;;;;2240888;61;5565;-69
2021/01/03 01:15:44;1025236.00;3.42;1777.22;0.00;0.00;0.62;;;;;23.20;40.00;;;;;;2241534;61;3957;-71
2021/01/03 01:18:17;983648.00;3.28;1703.53;0.00;0.00;0.62;;;;;23.20;40.00;;;;;;2243742;61;3505;-70
2021/01/03 01:20:44;1367118.00;4.56;2395.48;0.00;0.00;0.62;;;;;23.10;39.80;;;;;;2241389;61;4141;-71
2021/01/03 01:23:10;1030863.00;3.44;1787.21;0.00;0.00;0.62;;;;;23.20;40.40;;;;;;2241079;61;4023;-75
2021/01/03 01:25:40;1007466.00;3.36;1745.70;0.00;0.00;0.62;;;;;23.20;39.80;;;;;;2241359;61;3877;-69
2021/01/03 01:28:07;1049110.00;3.50;1819.65;0.00;0.00;0.62;;;;;23.10;39.80;;;;;;2240699;61;3544;-71
2021/01/03 01:30:34;941942.00;3.14;1629.91;0.00;0.00;0.62;;;;;23.10;39.80;;;;;;2236772;61;4246;-73
2021/01/03 01:33:01;1225736.00;4.09;2136.82;0.00;0.00;0.62;;;;;23.10;39.80;;;;;;2237723;61;3720;-71
2021/01/03 01:35:30;1065033.00;3.55;1848.00;0.00;0.00;0.62;;;;;23.10;39.90;;;;;;2243413;61;2623;-69
2021/01/03 01:37:56;970504.00;3.24;1680.30;0.00;0.00;0.62;;;;;23.10;40.00;;;;;;2241605;61;3966;-70
2021/01/03 01:40:28;1039977.00;3.47;1803.41;0.00;0.00;0.62;;;;;23.10;40.00;;;;;;2238259;61;4021;-74
2021/01/03 01:42:54;1124344.00;3.75;1954.01;0.00;0.00;0.62;;;;;23.10;40.00;;;;;;2240610;61;2591;-70
2021/01/03 01:45:26;1039066.00;3.46;1801.79;0.00;0.00;0.62;;;;;23.10;39.90;;;;;;2242233;61;2774;-72
2021/01/03 01:47:59;1080410.00;3.60;1875.43;0.00;0.00;0.62;;;;;23.10;39.90;;;;;;2242083;61;3511;-72
2021/01/03 01:50:33;968598.00;3.23;1676.93;0.00;0.00;0.62;;;;;23.10;39.90;;;;;;2241119;61;2706;-73
2021/01/03 01:53:04;1043699.00;3.48;1810.02;0.00;0.00;0.62;;;;;23.10;39.90;;;;;;2241853;61;2709;-72
2021/01/03 01:55:37;908887.00;3.03;1571.73;0.00;0.00;0.62;;;;;23.10;39.80;;;;;;2241774;61;3800;-70
2021/01/03 01:58:18;983045.00;3.28;1702.47;0.00;0.00;0.62;;;;;23.10;39.90;;;;;;2241625;61;3998;-72
2021/01/03 02:00:56;1067720.00;3.56;1852.79;0.00;0.00;0.62;;;;;23.00;39.80;;;;;;2244720;61;3314;-70
2021/01/03 02:04:00;1050333.00;3.50;1821.83;0.00;0.00;0.62;;;;;23.00;39.90;;;;;;2254796;40;2466;-63
2021/01/03 02:06:40;959848.00;3.20;1661.48;0.00;0.00;0.62;;;;;23.00;40.00;;;;;;2252436;61;1567;-63
2021/01/03 02:09:16;131229608.00;437.43;91571680.00;0.00;0.00;0.62;;;;;23.00;40.00;;;;;;2253123;61;2037;-63
2021/01/03 02:11:43;987901.00;3.29;1711.05;0.00;0.00;0.62;;;;;23.00;39.90;;;;;;2253240;61;1591;-63
2021/01/03 02:14:11;895923.00;2.99;1548.96;0.00;0.00;0.62;;;;;23.10;39.80;;;;;;2253353;61;1705;-63
2021/01/03 02:16:39;969017.00;3.23;1677.67;0.00;0.00;0.62;;;;;23.00;39.90;;;;;;2253618;61;1809;-63
2021/01/03 02:19:14;1017161.00;3.39;1762.89;0.00;0.00;0.62;;;;;23.00;40.00;;;;;;2253434;61;1785;-63
2021/01/03 02:21:59;1179498.00;3.93;2053.20;0.00;0.00;0.62;;;;;23.00;39.90;;;;;;2253966;61;1841;-63
2021/01/03 02:24:44;968212.00;3.23;1676.25;0.00;0.00;0.62;;;;;23.00;39.80;;;;;;2254423;61;1730;-63
2021/01/03 02:27:22;1019875.00;3.40;1767.70;0.00;0.00;0.62;;;;;23.00;39.90;;;;;;2253929;61;1727;-63
2021/01/03 02:29:53;1012776.00;3.38;1755.11;0.00;0.00;0.62;;;;;23.00;40.00;;;;;;2253397;61;1554;-63
2021/01/03 02:32:22;937728.00;3.13;1622.48;0.00;0.00;0.62;;;;;23.00;40.00;;;;;;2253610;61;1933;-63
2021/01/03 02:34:53;989160.00;3.30;1713.28;0.00;0.00;0.62;;;;;23.00;40.00;;;;;;2253400;61;1306;-63
2021/01/03 02:37:30;950723.00;3.17;1645.39;0.00;0.00;0.62;;;;;23.00;40.00;;;;;;2253986;61;1124;-62
2021/01/03 02:40:21;994735.00;3.32;1723.15;0.00;0.00;0.62;;;;;22.90;40.00;;;;;;2253005;61;1388;-63
2021/01/03 02:42:55;1047799.00;3.49;1817.32;0.00;0.00;0.62;;;;;22.90;40.10;;;;;;2253972;61;1473;-63
2021/01/03 02:45:30;1227555.00;4.09;2140.12;0.00;0.00;0.62;;;;;22.90;40.00;;;;;;2247513;61;1653;-63
2021/01/03 02:48:14;1026855.00;3.42;1780.09;0.00;0.00;0.62;;;;;22.90;40.00;;;;;;2255000;61;1947;-63
2021/01/03 02:50:40;1056565.00;3.52;1832.92;0.00;0.00;0.62;;;;;22.90;40.00;;;;;;2251387;61;9502;-63
2021/01/03 02:53:08;1044306.00;3.48;1811.10;0.00;0.00;0.62;;;;;22.90;40.00;;;;;;2240741;61;7239;-63
2021/01/03 02:55:35;1058847.00;3.53;1836.98;0.00;0.00;0.62;;;;;22.90;40.00;;;;;;2243619;61;7528;-63
2021/01/03 02:58:02;1033686.00;3.45;1792.23;0.00;0.00;0.62;;;;;23.00;40.00;;;;;;2248441;61;7444;-63
2021/01/03 03:00:32;1026740.00;3.42;1779.89;0.00;0.00;0.62;;;;;22.90;40.00;;;;;;2240586;61;7677;-63
2021/01/03 03:03:04;1017732.00;3.39;1763.90;0.00;0.00;0.62;;;;;23.00;40.00;;;;;;2246612;61;7521;-63
2021/01/03 03:05:34;972725.00;3.24;1684.22;0.00;0.00;0.62;;;;;22.90;39.90;;;;;;2247036;61;7675;-63
2021/01/03 03:08:01;1278837.00;4.26;2233.43;122565.00;0.41;212.51;;;;;22.90;39.90;;;;;;2235172;61;11125;-63
2021/01/03 03:10:29;975423.00;3.25;1688.99;0.00;0.00;0.62;;;;;22.80;40.00;;;;;;2243479;61;7508;-63
2021/01/03 03:12:58;998389.00;3.33;1729.62;0.00;0.00;0.62;;;;;22.90;40.00;;;;;;2243121;61;7556;-63
2021/01/03 03:15:32;1025448.00;3.42;1777.60;0.00;0.00;0.62;;;;;22.80;40.00;;;;;;2248841;61;7576;-63
2021/01/03 03:18:01;959862.00;3.20;1661.51;0.00;0.00;0.62;;;;;22.90;40.10;;;;;;2245668;61;7927;-63
2021/01/03 03:20:27;993754.00;3.31;1721.41;0.00;0.00;0.62;;;;;22.80;40.00;;;;;;2243535;61;7898;-63
2021/01/03 03:22:54;1008749.00;3.36;1747.97;0.00;0.00;0.62;;;;;22.90;40.10;;;;;;2243140;61;7581;-63
2021/01/03 03:25:21;979186.00;3.26;1695.64;0.00;0.00;0.62;;;;;22.90;40.00;;;;;;2246141;61;7605;-63
2021/01/03 03:27:48;1204978.00;4.02;2099.22;51241.00;0.17;89.33;;;;;22.90;40.00;;;;;;2244963;61;7542;-62
2021/01/03 03:30:18;978968.00;3.26;1695.26;0.00;0.00;0.62;;;;;22.90;40.00;;;;;;2240305;61;7635;-63
2021/01/03 03:32:54;990966.00;3.30;1716.48;0.00;0.00;0.62;;;;;22.90;40.00;;;;;;2248527;61;7668;-63
2021/01/03 03:35:35;1017991.00;3.39;1764.36;0.00;0.00;0.62;;;;;22.80;40.10;;;;;;2244924;61;7649;-63
2021/01/03 03:38:02;983997.00;3.28;1704.15;0.00;0.00;0.62;;;;;22.80;40.10;;;;;;2244825;61;7637;-63
2021/01/03 03:40:28;925840.00;3.09;1601.55;0.00;0.00;0.62;;;;;22.80;40.00;;;;;;2237590;61;7629;-63
2021/01/03 03:42:55;967559.00;3.23;1675.10;0.00;0.00;0.62;;;;;22.90;40.00;;;;;;2240129;61;7502;-63
2021/01/03 03:45:22;989912.00;3.30;1714.61;0.00;0.00;0.62;;;;;22.90;40.10;;;;;;2240629;61;8392;-63
2021/01/03 03:47:52;994655.00;3.32;1723.01;0.00;0.00;0.62;;;;;22.90;40.00;;;;;;2241755;61;7697;-63
2021/01/03 03:50:23;1055182.00;3.52;1830.46;0.00;0.00;0.62;;;;;22.80;40.00;;;;;;2248866;61;7877;-63
2021/01/03 03:52:50;997547.00;3.33;1728.13;0.00;0.00;0.62;;;;;22.90;40.00;;;;;;2243112;61;7511;-63
2021/01/03 03:55:17;988627.00;3.30;1712.34;0.00;0.00;0.62;;;;;22.80;40.10;;;;;;2243281;61;6466;-63
2021/01/03 03:57:44;1121735.00;3.74;1949.34;0.00;0.00;0.62;;;;;22.80;40.00;;;;;;2245118;61;6190;-63
2021/01/03 04:00:16;1083599.00;3.61;1881.12;0.00;0.00;0.62;;;;;22.80;40.00;;;;;;2240498;61;5935;-63
2021/01/03 04:02:44;977321.00;3.26;1692.35;0.00;0.00;0.62;;;;;22.70;40.10;;;;;;2244620;61;5827;-62
2021/01/03 04:05:15;1052704.00;3.51;1826.04;0.00;0.00;0.62;;;;;22.70;40.10;;;;;;2242415;61;7343;-63
2021/01/03 04:07:41;1034656.00;3.45;1793.95;0.00;0.00;0.62;;;;;22.80;40.10;;;;;;2244038;61;7302;-63
2021/01/03 04:10:13;121216864.00;404.06;72153200.00;0.00;0.00;0.62;;;;;22.80;40.00;;;;;;2241729;61;7239;-63
2021/01/03 04:12:43;1033702.00;3.45;1792.25;0.00;0.00;0.62;;;;;22.80;40.00;;;;;;2247233;61;11402;-63
2021/01/03 04:15:14;1058197.00;3.53;1835.82;0.00;0.00;0.62;;;;;22.70;40.00;;;;;;2242499;61;7842;-63
2021/01/03 04:17:40;1092308.00;3.64;1896.67;0.00;0.00;0.62;;;;;22.70;40.10;;;;;;2248751;61;7710;-63
2021/01/03 04:20:14;1082885.00;3.61;1879.84;0.00;0.00;0.62;;;;;22.70;40.00;;;;;;2246766;61;7631;-63
2021/01/03 04:22:41;1053384.00;3.51;1827.26;0.00;0.00;0.62;;;;;22.80;40.10;;;;;;2246077;61;7561;-63
2021/01/03 04:25:08;1040502.00;3.47;1804.34;0.00;0.00;0.62;;;;;22.80;40.00;;;;;;2240671;61;7812;-63
2021/01/03 04:27:34;1059857.00;3.53;1838.78;0.00;0.00;0.62;;;;;22.80;40.00;;;;;;2241042;61;7549;-63
2021/01/03 04:30:06;1079490.00;3.60;1873.78;0.00;0.00;0.62;;;;;22.70;40.10;;;;;;2240465;61;7665;-63
2021/01/03 04:32:40;1131373.00;3.77;1966.62;0.00;0.00;0.62;;;;;22.70;40.10;;;;;;2241437;61;7670;-63
2021/01/03 04:35:08;1090980.00;3.64;1894.30;0.00;0.00;0.62;;;;;22.80;40.10;;;;;;2241152;61;7733;-63
2021/01/03 04:37:34;1044357.00;3.48;1811.19;0.00;0.00;0.62;;;;;22.70;40.00;;;;;;2244553;61;7926;-62
2021/01/03 04:40:01;1048475.00;3.49;1818.52;0.00;0.00;0.62;;;;;22.80;40.10;;;;;;2241272;61;7836;-63
2021/01/03 04:42:34;1020250.00;3.40;1768.37;0.00;0.00;0.62;;;;;22.80;40.00;;;;;;2240887;61;7800;-64
2021/01/03 04:45:07;1045328.00;3.48;1812.92;0.00;0.00;0.62;;;;;22.70;40.00;;;;;;2242581;61;7744;-63
2021/01/03 04:47:56;1090358.00;3.63;1893.19;0.00;0.00;0.62;;;;;22.70;40.00;;;;;;2246966;61;7441;-63
2021/01/03 04:50:22;995891.00;3.32;1725.20;0.00;0.00;0.62;;;;;22.80;40.10;;;;;;2244398;61;7690;-63
2021/01/03 04:52:58;1020399.00;3.40;1768.63;0.00;0.00;0.62;;;;;22.70;40.10;;;;;;2244803;61;7860;-63
2021/01/03 04:55:28;126136816.00;420.46;81309432.00;0.00;0.00;0.62;;;;;22.70;40.10;;;;;;2245756;61;7639;-63
2021/01/03 04:58:13;1035249.00;3.45;1795.00;0.00;0.00;0.62;;;;;22.70;40.00;;;;;;2244056;61;7281;-63
2021/01/03 05:01:22;1069278.00;3.56;1855.57;0.00;0.00;0.62;;;;;22.70;39.90;;;;;;2243722;61;7637;-63
2021/01/03 05:04:44;1073713.00;3.58;1863.48;0.00;0.00;0.62;;;;;22.70;40.00;;;;;;2241146;61;8549;-63
2021/01/03 05:07:33;1082226.00;3.61;1878.67;0.00;0.00;0.62;;;;;22.70;40.10;;;;;;2245285;61;7351;-62
2021/01/03 05:10:17;1023275.00;3.41;1773.74;0.00;0.00;0.62;;;;;22.70;40.10;;;;;;2243296;61;7413;-63
2021/01/03 05:13:01;1085803.00;3.62;1885.05;0.00;0.00;0.62;;;;;22.70;40.10;;;;;;2248968;61;7469;-63
2021/01/03 05:15:31;1069321.00;3.56;1855.65;0.00;0.00;0.62;;;;;22.70;40.10;;;;;;2245945;61;5657;-63
2021/01/03 05:17:58;1063368.00;3.54;1845.04;157201.00;0.52;272.22;;;;;22.70;40.00;;;;;;2245468;61;7476;-63
2021/01/03 05:20:25;118077016.00;393.59;66685500.00;46646.00;0.16;81.39;;;;;22.70;40.10;;;;;;2243660;61;7279;-63
2021/01/03 05:22:51;1074551.00;3.58;1864.97;0.00;0.00;0.62;;;;;22.60;39.90;;;;;;2247884;61;8815;-63
2021/01/03 05:25:20;1063923.00;3.55;1846.02;0.00;0.00;0.62;;;;;22.70;40.10;;;;;;2243624;61;7494;-63
2021/01/03 05:28:03;1173704.00;3.91;2042.75;0.00;0.00;0.62;;;;;22.60;40.10;;;;;;2243405;61;7515;-63
2021/01/03 05:30:30;1183023.00;3.94;2059.56;0.00;0.00;0.62;;;;;22.60;40.00;;;;;;2239707;61;7649;-63
2021/01/03 05:33:13;1284219.00;4.28;2243.25;0.00;0.00;0.62;;;;;22.60;40.10;;;;;;2243075;61;7457;-63
2021/01/03 05:35:42;1219356.00;4.06;2125.26;0.00;0.00;0.62;;;;;22.60;40.10;;;;;;2244152;61;7315;-63
2021/01/03 05:38:11;1221476.00;4.07;2129.10;0.00;0.00;0.62;;;;;22.70;40.10;;;;;;2243501;61;7748;-63
2021/01/03 05:40:44;1264655.00;4.22;2207.56;0.00;0.00;0.62;;;;;22.60;40.00;;;;;;2246010;61;7448;-63
2021/01/03 05:43:23;1196633.00;3.99;2084.13;0.00;0.00;0.62;;;;;22.70;40.70;;;;;;2247822;61;7650;-63
2021/01/03 05:46:02;1109720.00;3.70;1927.82;0.00;0.00;0.62;;;;;22.60;40.70;;;;;;2246721;61;6945;-63
2021/01/03 05:48:44;1158483.00;3.86;2015.33;0.00;0.00;0.62;;;;;22.60;40.10;;;;;;2243680;61;6037;-63
2021/01/03 05:51:33;1206605.00;4.02;2102.17;0.00;0.00;0.62;;;;;22.60;40.00;;;;;;2242421;61;6025;-63
2021/01/03 05:54:07;1141540.00;3.81;1984.87;0.00;0.00;0.62;;;;;22.60;40.10;;;;;;2244106;61;7679;-63
2021/01/03 05:56:35;1150699.00;3.84;2001.33;0.00;0.00;0.62;;;;;22.60;40.10;;;;;;2243694;61;7892;-63
2021/01/03 05:59:03;1168129.00;3.89;2032.70;0.00;0.00;0.62;;;;;22.60;40.10;;;;;;2241049;61;7220;-63
2021/01/03 06:01:35;1173719.00;3.91;2042.78;0.00;0.00;0.62;;;;;22.60;40.10;;;;;;2244631;61;7477;-63
2021/01/03 06:04:19;1238753.00;4.13;2160.44;0.00;0.00;0.62;;;;;22.60;40.00;;;;;;2241530;61;7628;-63
2021/01/03 06:06:52;1228565.00;4.10;2141.95;0.00;0.00;0.62;;;;;22.60;40.10;;;;;;2246928;61;7319;-63
2021/01/03 06:09:31;1266751.00;4.22;2211.38;0.00;0.00;0.62;;;;;22.60;40.10;;;;;;2247406;61;6932;-63
2021/01/03 06:12:00;1161827.00;3.87;2021.35;0.00;0.00;0.62;;;;;22.60;40.10;;;;;;2243250;61;7255;-63
2021/01/03 06:14:31;1203419.00;4.01;2096.40;0.00;0.00;0.62;;;;;22.60;40.10;;;;;;2244927;61;6156;-63
2021/01/03 06:17:15;1186967.00;3.96;2066.67;0.00;0.00;0.62;;;;;22.60;40.10;;;;;;2242788;61;7597;-63
2021/01/03 06:19:53;1212147.00;4.04;2112.20;0.00;0.00;0.62;;;;;22.60;40.00;;;;;;2244337;61;7295;-63
2021/01/03 06:22:35;1162659.00;3.88;2022.85;0.00;0.00;0.62;;;;;22.60;40.10;;;;;;2244641;61;7283;-63
2021/01/03 06:25:15;1193411.00;3.98;2078.31;0.00;0.00;0.62;;;;;22.50;40.10;;;;;;2244654;61;7462;-63
2021/01/03 06:27:47;1124957.00;3.75;1955.11;0.00;0.00;0.62;;;;;22.50;40.10;;;;;;2243769;61;7587;-63
2021/01/03 06:30:18;1216500.00;4.05;2120.08;0.00;0.00;0.62;;;;;22.60;40.10;;;;;;2243453;61;7418;-63
2021/01/03 06:33:04;1025861.00;3.42;1778.33;0.00;0.00;0.62;;;;;22.60;40.10;;;;;;2244207;61;7262;-63
2021/01/03 06:35:32;1014979.00;3.38;1759.02;0.00;0.00;0.62;;;;;22.50;40.00;;;;;;2241478;61;7315;-63
2021/01/03 06:38:13;1121097.00;3.74;1948.19;0.00;0.00;0.62;;;;;22.60;40.10;;;;;;2249799;61;7162;-63
2021/01/03 06:40:47;1022271.00;3.41;1771.96;0.00;0.00;0.62;;;;;22.50;40.00;;;;;;2244545;61;7818;-63
2021/01/03 06:43:53;1313269.00;4.38;2296.41;0.00;0.00;0.62;;;;;22.50;40.00;;;;;;2246460;61;7229;-63
2021/01/03 06:46:41;1086227.00;3.62;1885.81;0.00;0.00;0.62;;;;;22.50;40.00;;;;;;2243837;61;7453;-63
2021/01/03 06:49:16;1042034.00;3.47;1807.06;0.00;0.00;0.62;;;;;22.50;40.00;;;;;;2246857;61;7597;-63
2021/01/03 06:52:02;1035805.00;3.45;1795.99;0.00;0.00;0.62;;;;;22.50;40.10;;;;;;2244552;61;7311;-63
2021/01/03 06:55:05;1056279.00;3.52;1832.41;0.00;0.00;0.62;;;;;22.50;40.10;;;;;;2248287;61;7582;-63
2021/01/03 06:57:58;1123234.00;3.74;1952.02;0.00;0.00;0.62;;;;;22.50;40.10;;;;;;2244562;61;7850;-63
2021/01/03 07:00:33;1051648.00;3.51;1824.17;0.00;0.00;0.62;;;;;22.50;40.10;;;;;;2246507;61;7146;-63
2021/01/03 07:03:12;1110873.00;3.70;1929.88;0.00;0.00;0.62;;;;;22.50;40.10;;;;;;2244613;61;7349;-63
2021/01/03 07:06:08;1292387.00;4.31;2258.18;0.00;0.00;0.62;;;;;22.50;40.10;;;;;;2244826;61;7246;-62
2021/01/03 07:08:39;1158372.00;3.86;2015.13;0.00;0.00;0.62;;;;;22.50;40.10;;;;;;2244739;61;7254;-63
2021/01/03 07:11:44;1209121.00;4.03;2106.72;0.00;0.00;0.62;;;;;22.50;40.00;;;;;;2246224;61;7354;-63
2021/01/03 07:14:37;1153322.00;3.84;2006.05;0.00;0.00;0.62;;;;;22.50;40.10;;;;;;2243153;61;8187;-63
2021/01/03 07:17:12;1167418.00;3.89;2031.42;0.00;0.00;0.62;;;;;22.50;40.10;;;;;;2250676;61;7585;-63
2021/01/03 07:19:53;1130033.00;3.77;1964.22;0.00;0.00;0.62;;;;;22.40;40.10;;;;;;2242478;61;7475;-63
2021/01/03 07:22:55;1198339.00;3.99;2087.22;0.00;0.00;0.62;;;;;22.40;40.10;;;;;;2246380;61;7826;-63
2021/01/03 07:25:43;1265879.00;4.22;2209.79;0.00;0.00;0.62;;;;;22.40;40.10;;;;;;2244428;61;7918;-63
2021/01/03 07:28:23;1323691.00;4.41;2315.53;0.00;0.00;0.62;;;;;22.50;40.10;;;;;;2245767;61;7769;-63
2021/01/03 07:31:12;1306166.00;4.35;2283.39;0.00;0.00;0.62;;;;;22.40;39.70;;;;;;2246344;61;7460;-63
2021/01/03 07:34:02;1268035.00;4.23;2213.72;0.00;0.00;0.62;;;;;22.40;39.40;;;;;;2244840;61;7946;-63
2021/01/03 07:36:34;1144108.00;3.81;1989.49;0.00;0.00;0.62;;;;;22.50;39.40;;;;;;2241334;61;7671;-63
2021/01/03 07:39:23;123455376.00;411.52;76228720.00;0.00;0.00;0.62;;;;;22.50;39.40;;;;;;2245638;61;7609;-66
2021/01/03 07:42:21;140347808.00;467.83;112039456.00;0.00;0.00;0.62;;;;;22.40;39.20;;;;;;2242923;61;7590;-66
2021/01/03 07:44:48;1213733.00;4.05;2115.07;0.00;0.00;0.62;;;;;22.50;39.10;;;;;;2245007;61;7309;-66
2021/01/03 07:47:48;1201153.00;4.00;2092.30;0.00;0.00;0.62;;;;;22.50;39.00;;;;;;2240542;61;7600;-66
2021/01/03 07:50:20;1263084.00;4.21;2204.70;0.00;0.00;0.62;;;;;22.60;39.00;;;;;;2238874;61;7435;-66
2021/01/03 07:52:56;1213677.00;4.05;2114.97;0.00;0.00;0.62;;;;;22.60;38.90;;;;;;2248443;61;7625;-65
2021/01/03 07:55:22;1305314.00;4.35;2281.83;0.00;0.00;0.62;;;;;22.70;38.70;;;;;;2247477;61;7036;-66
2021/01/03 07:58:23;1299946.00;4.33;2272.01;0.00;0.00;0.62;;;;;22.70;38.30;;;;;;2245079;61;7531;-66
2021/01/03 08:00:56;1313011.00;4.38;2295.94;0.00;0.00;0.62;;;;;22.70;38.00;;;;;;2247237;61;7721;-66
2021/01/03 08:03:25;1437219.00;4.79;2525.53;0.00;0.00;0.62;;;;;22.80;37.80;;;;;;2244912;61;7716;-65
2021/01/03 08:05:52;1313614.00;4.38;2297.04;0.00;0.00;0.62;;;;;22.80;37.80;;;;;;2247855;61;7653;-66
2021/01/03 08:08:28;122625648.00;408.75;74700648.00;0.00;0.00;0.62;;;;;22.90;37.90;;;;;;2249634;61;7474;-66
2021/01/03 08:11:28;1300175.00;4.33;2272.43;0.00;0.00;0.62;;;;;22.90;37.70;;;;;;2238738;61;7633;-65
2021/01/03 08:14:15;1321959.00;4.41;2312.35;0.00;0.00;0.62;;;;;23.00;37.50;;;;;;2245326;61;7571;-66
2021/01/03 08:16:42;1366777.00;4.56;2394.85;0.00;0.00;0.62;;;;;23.10;37.40;;;;;;2243177;61;5743;-66
2021/01/03 08:19:09;1405751.00;4.69;2466.99;0.00;0.00;0.62;;;;;23.20;37.30;;;;;;2247739;61;7283;-66
2021/01/03 08:21:39;1375491.00;4.58;2410.94;0.00;0.00;0.62;;;;;23.20;37.20;;;;;;2241392;61;7525;-66
2021/01/03 08:24:15;1416496.00;4.72;2486.95;0.00;0.00;0.62;;;;;23.30;37.10;;;;;;2240255;61;7533;-66
2021/01/03 08:26:50;1367973.00;4.56;2397.06;0.00;0.00;0.62;;;;;23.40;37.10;;;;;;2243192;61;7564;-66
2021/01/03 08:29:28;1232057.00;4.11;2148.29;0.00;0.00;0.62;;;;;23.40;36.80;;;;;;2243377;61;7528;-66
2021/01/03 08:32:18;1334980.00;4.45;2336.27;0.00;0.00;0.62;;;;;23.50;36.80;;;;;;2246912;61;7951;-66
2021/01/03 08:34:45;1296919.00;4.32;2266.47;0.00;0.00;0.62;;;;;23.60;36.60;;;;;;2245256;61;7545;-65
2021/01/03 08:37:14;1338433.00;4.46;2342.62;0.00;0.00;0.62;;;;;23.60;36.40;;;;;;2243680;61;7466;-66
2021/01/03 08:39:41;1357736.00;4.53;2378.17;0.00;0.00;0.62;;;;;23.70;36.50;;;;;;2240634;61;7521;-65
2021/01/03 08:42:16;1377770.00;4.59;2415.16;0.00;0.00;0.62;;;;;23.70;36.20;;;;;;2247893;61;7691;-65
2021/01/03 08:44:53;1386158.00;4.62;2430.68;0.00;0.00;0.62;;;;;23.80;36.10;;;;;;2244552;61;7484;-65
2021/01/03 08:47:29;1407089.00;4.69;2469.48;0.00;0.00;0.62;;;;;23.80;36.00;;;;;;2245291;61;7382;-66
2021/01/03 08:50:07;1380801.00;4.60;2420.76;0.00;0.00;0.62;;;;;23.90;35.90;;;;;;2244720;61;7410;-66
2021/01/03 08:52:33;129107536.00;430.36;87196600.00;0.00;0.00;0.62;;;;;23.90;35.80;;;;;;2244320;61;7657;-65
2021/01/03 08:55:08;117852648.00;392.84;66305732.00;0.00;0.00;0.62;;;;;24.00;35.80;;;;;;2246672;61;7842;-66
2021/01/03 08:57:35;1520552.00;5.07;2681.85;0.00;0.00;0.62;;;;;24.00;35.70;;;;;;2243456;61;7584;-66
2021/01/03 09:00:05;1486548.00;4.96;2617.83;0.00;0.00;0.62;;;;;24.10;35.60;;;;;;2240551;61;7516;-66
2021/01/03 09:02:32;1573439.00;5.24;2782.09;16462.00;0.05;29.14;;;;;24.10;35.70;;;;;;2244192;61;7597;-66
2021/01/03 09:05:02;1484971.00;4.95;2614.87;0.00;0.00;0.62;;;;;24.20;35.60;;;;;;2241949;61;7636;-66
2021/01/03 09:07:36;1487620.00;4.96;2619.85;0.00;0.00;0.62;;;;;24.30;35.60;;;;;;2248689;61;7513;-66
2021/01/03 09:10:07;1508242.00;5.03;2658.64;0.00;0.00;0.62;;;;;24.30;35.60;;;;;;2243742;61;7686;-66
2021/01/03 09:12:44;1488832.00;4.96;2622.12;0.00;0.00;0.62;;;;;24.30;35.20;;;;;;2240768;61;7880;-66
2021/01/03 09:15:18;1526250.00;5.09;2692.61;0.00;0.00;0.62;;;;;24.40;35.40;;;;;;2244503;61;7647;-66
2021/01/03 09:17:45;1458202.00;4.86;2564.71;0.00;0.00;0.62;;;;;24.40;35.40;;;;;;2246075;61;7834;-66
2021/01/03 09:20:32;1531022.00;5.10;2701.63;0.00;0.00;0.62;;;;;24.40;35.40;;;;;;2240154;61;7503;-66
2021/01/03 09:23:08;1501711.00;5.01;2646.34;0.00;0.00;0.62;;;;;24.50;35.40;;;;;;2239957;61;7608;-66
2021/01/03 09:25:41;1500954.00;5.00;2644.92;0.00;0.00;0.62;;;;;24.50;35.40;;;;;;2247487;61;7688;-66
2021/01/03 09:28:18;1473548.00;4.91;2593.44;0.00;0.00;0.62;;;;;24.50;35.40;;;;;;2245365;61;7740;-65
2021/01/03 09:30:44;1430766.00;4.77;2513.51;0.00;0.00;0.62;;;;;24.50;35.20;;;;;;2244728;61;7541;-65
2021/01/03 09:33:20;1485703.00;4.95;2616.25;0.00;0.00;0.62;;;;;24.50;36.10;;;;;;2242494;61;7462;-66
2021/01/03 09:35:55;1456774.00;4.86;2562.04;0.00;0.00;0.62;;;;;24.50;35.60;;;;;;2245556;61;7460;-65
2021/01/03 09:38:39;1436453.00;4.79;2524.11;0.00;0.00;0.62;;;;;24.50;35.60;;;;;;2244755;61;7590;-66
2021/01/03 09:41:21;1503594.00;5.01;2649.88;0.00;0.00;0.62;;;;;24.50;35.30;;;;;;2244661;61;7682;-66
2021/01/03 09:44:06;1444307.00;4.81;2538.76;0.00;0.00;0.62;;;;;24.50;35.60;;;;;;2242724;61;7506;-66
2021/01/03 09:47:03;1472928.00;4.91;2592.28;0.00;0.00;0.62;;;;;24.50;35.70;;;;;;2246903;61;7367;-66
2021/01/03 09:49:41;1499790.00;5.00;2642.72;0.00;0.00;0.62;;;;;24.50;35.70;;;;;;2242968;61;7669;-70
2021/01/03 09:52:33;1455467.00;4.85;2559.60;0.00;0.00;0.62;;;;;24.50;35.70;;;;;;2244191;61;7472;-66
2021/01/03 09:55:02;1469343.00;4.90;2585.57;0.00;0.00;0.62;;;;;24.50;35.60;;;;;;2243376;61;7807;-66
2021/01/03 09:57:53;1433799.00;4.78;2519.16;0.00;0.00;0.62;;;;;24.40;35.70;;;;;;2245338;61;7675;-66
2021/01/03 10:00:45;1481056.00;4.94;2607.52;0.00;0.00;0.62;;;;;24.50;35.60;;;;;;2247589;61;7507;-66
2021/01/03 10:03:21;143047008.00;476.82;118635880.00;0.00;0.00;0.62;;;;;24.40;35.60;;;;;;2247537;61;7579;-66
2021/01/03 10:05:53;1456786.00;4.86;2562.07;0.00;0.00;0.62;;;;;24.50;35.70;;;;;;2247420;61;7684;-66
2021/01/03 10:08:27;1518051.00;5.06;2677.13;0.00;0.00;0.62;;;;;24.50;35.60;;;;;;2234766;61;6343;-65
2021/01/03 10:10:59;1506394.00;5.02;2655.16;0.00;0.00;0.62;;;;;24.50;35.60;;;;;;2244040;61;7503;-66